sensor_id;sensor_type;location;lat;lon;timestamp;P1;durP1;ratioP1;P2;durP2;ratioP2
10657;SDS011;5377;43.276;26.930;2023-03-14T00:01:54;25.13;;;14.30;;
10657;SDS011;5377;43.276;26.930;2023-03-14T00:04:21;24.63;;;13.77;;
10657;SDS011;5377;43.276;26.930;2023-03-14T00:06:47;23.63;;;13.13;;
10657;SDS011;5377;43.276;26.930;2023-03-14T00:09:14;18.93;;;12.67;;
10657;SDS011;5377;43.276;26.930;2023-03-14T00:11:43;21.60;;;12.03;;
10657;SDS011;5377;43.276;26.930;2023-03-14T00:14:10;25.13;;;15.27;;
10657;SDS011;5377;43.276;26.930;2023-03-14T00:16:38;28.13;;;16.80;;
10657;SDS011;5377;43.276;26.930;2023-03-14T00:19:05;27.73;;;16.30;;
10657;SDS011;5377;43.276;26.930;2023-03-14T00:21:31;26.73;;;14.43;;
10657;SDS011;5377;43.276;26.930;2023-03-14T00:23:58;24.43;;;14.03;;
10657;SDS011;5377;43.276;26.930;2023-03-14T00:26:25;26.97;;;13.13;;
10657;SDS011;5377;43.276;26.930;2023-03-14T00:28:53;16.70;;;10.80;;
10657;SDS011;5377;43.276;26.930;2023-03-14T00:31:20;23.07;;;12.10;;
10657;SDS011;5377;43.276;26.930;2023-03-14T00:33:47;24.80;;;13.80;;
10657;SDS011;5377;43.276;26.930;2023-03-14T00:36:14;28.67;;;15.63;;
10657;SDS011;5377;43.276;26.930;2023-03-14T00:38:43;26.13;;;14.20;;
10657;SDS011;5377;43.276;26.930;2023-03-14T00:41:11;26.03;;;13.57;;
10657;SDS011;5377;43.276;26.930;2023-03-14T00:43:39;19.90;;;12.33;;
10657;SDS011;5377;43.276;26.930;2023-03-14T00:46:07;20.97;;;12.23;;
10657;SDS011;5377;43.276;26.930;2023-03-14T00:48:34;20.87;;;11.97;;
10657;SDS011;5377;43.276;26.930;2023-03-14T00:51:02;18.60;;;11.27;;
10657;SDS011;5377;43.276;26.930;2023-03-14T00:53:29;19.87;;;12.30;;
10657;SDS011;5377;43.276;26.930;2023-03-14T00:55:55;24.23;;;13.70;;
10657;SDS011;5377;43.276;26.930;2023-03-14T00:58:23;21.83;;;12.87;;
10657;SDS011;5377;43.276;26.930;2023-03-14T01:00:50;19.97;;;10.73;;
10657;SDS011;5377;43.276;26.930;2023-03-14T01:03:18;15.50;;;9.50;;
10657;SDS011;5377;43.276;26.930;2023-03-14T01:05:45;19.60;;;10.60;;
10657;SDS011;5377;43.276;26.930;2023-03-14T01:08:11;21.47;;;10.97;;
10657;SDS011;5377;43.276;26.930;2023-03-14T01:10:38;19.00;;;11.27;;
10657;SDS011;5377;43.276;26.930;2023-03-14T01:13:06;17.13;;;10.17;;
10657;SDS011;5377;43.276;26.930;2023-03-14T01:15:33;18.07;;;10.27;;
10657;SDS011;5377;43.276;26.930;2023-03-14T01:18:00;17.50;;;10.17;;
10657;SDS011;5377;43.276;26.930;2023-03-14T01:20:29;17.00;;;10.67;;
10657;SDS011;5377;43.276;26.930;2023-03-14T01:22:55;12.10;;;8.70;;
10657;SDS011;5377;43.276;26.930;2023-03-14T01:25:22;15.87;;;8.57;;
10657;SDS011;5377;43.276;26.930;2023-03-14T01:27:49;11.30;;;8.73;;
10657;SDS011;5377;43.276;26.930;2023-03-14T01:30:16;15.47;;;9.30;;
10657;SDS011;5377;43.276;26.930;2023-03-14T01:32:42;12.93;;;8.40;;
10657;SDS011;5377;43.276;26.930;2023-03-14T01:35:09;11.60;;;7.37;;
10657;SDS011;5377;43.276;26.930;2023-03-14T01:37:37;12.27;;;8.03;;
10657;SDS011;5377;43.276;26.930;2023-03-14T01:40:04;13.63;;;8.83;;
10657;SDS011;5377;43.276;26.930;2023-03-14T01:42:32;14.03;;;7.80;;
10657;SDS011;5377;43.276;26.930;2023-03-14T01:44:59;15.47;;;9.23;;
10657;SDS011;5377;43.276;26.930;2023-03-14T01:47:27;15.10;;;9.03;;
10657;SDS011;5377;43.276;26.930;2023-03-14T01:49:55;18.40;;;8.37;;
10657;SDS011;5377;43.276;26.930;2023-03-14T01:52:26;15.67;;;8.83;;
10657;SDS011;5377;43.276;26.930;2023-03-14T01:54:59;15.77;;;8.77;;
10657;SDS011;5377;43.276;26.930;2023-03-14T01:57:32;11.17;;;7.77;;
10657;SDS011;5377;43.276;26.930;2023-03-14T02:00:03;13.57;;;6.50;;
10657;SDS011;5377;43.276;26.930;2023-03-14T02:02:36;9.13;;;5.70;;
10657;SDS011;5377;43.276;26.930;2023-03-14T02:05:06;13.63;;;7.20;;
10657;SDS011;5377;43.276;26.930;2023-03-14T02:07:33;15.93;;;9.33;;
10657;SDS011;5377;43.276;26.930;2023-03-14T02:10:05;15.63;;;8.37;;
10657;SDS011;5377;43.276;26.930;2023-03-14T02:12:33;12.60;;;7.40;;
10657;SDS011;5377;43.276;26.930;2023-03-14T02:15:01;11.83;;;6.10;;
10657;SDS011;5377;43.276;26.930;2023-03-14T02:17:27;12.23;;;5.97;;
10657;SDS011;5377;43.276;26.930;2023-03-14T02:19:58;10.03;;;6.03;;
10657;SDS011;5377;43.276;26.930;2023-03-14T02:22:35;14.90;;;7.50;;
10657;SDS011;5377;43.276;26.930;2023-03-14T02:25:08;8.87;;;5.93;;
10657;SDS011;5377;43.276;26.930;2023-03-14T02:27:40;10.60;;;8.17;;
10657;SDS011;5377;43.276;26.930;2023-03-14T02:30:08;8.23;;;5.07;;
10657;SDS011;5377;43.276;26.930;2023-03-14T02:32:37;8.70;;;5.00;;
10657;SDS011;5377;43.276;26.930;2023-03-14T02:35:08;8.90;;;4.70;;
10657;SDS011;5377;43.276;26.930;2023-03-14T02:37:38;6.50;;;4.13;;
10657;SDS011;5377;43.276;26.930;2023-03-14T02:40:10;7.03;;;4.63;;
10657;SDS011;5377;43.276;26.930;2023-03-14T02:42:37;10.40;;;6.07;;
10657;SDS011;5377;43.276;26.930;2023-03-14T02:48:13;7.30;;;5.10;;
10657;SDS011;5377;43.276;26.930;2023-03-14T02:50:44;6.90;;;4.03;;
10657;SDS011;5377;43.276;26.930;2023-03-14T02:53:13;7.10;;;4.33;;
10657;SDS011;5377;43.276;26.930;2023-03-14T02:55:44;5.70;;;4.27;;
10657;SDS011;5377;43.276;26.930;2023-03-14T02:58:12;8.43;;;4.60;;
10657;SDS011;5377;43.276;26.930;2023-03-14T03:00:39;7.57;;;4.53;;
10657;SDS011;5377;43.276;26.930;2023-03-14T03:03:06;8.40;;;4.70;;
10657;SDS011;5377;43.276;26.930;2023-03-14T03:05:34;7.93;;;4.30;;
10657;SDS011;5377;43.276;26.930;2023-03-14T03:08:01;7.43;;;4.17;;
10657;SDS011;5377;43.276;26.930;2023-03-14T03:10:28;8.40;;;4.73;;
10657;SDS011;5377;43.276;26.930;2023-03-14T03:12:56;9.47;;;4.70;;
10657;SDS011;5377;43.276;26.930;2023-03-14T03:15:23;11.13;;;5.17;;
10657;SDS011;5377;43.276;26.930;2023-03-14T03:17:50;8.17;;;5.07;;
10657;SDS011;5377;43.276;26.930;2023-03-14T03:20:16;10.50;;;5.13;;
10657;SDS011;5377;43.276;26.930;2023-03-14T03:22:45;8.57;;;5.47;;
10657;SDS011;5377;43.276;26.930;2023-03-14T03:25:12;11.70;;;6.37;;
10657;SDS011;5377;43.276;26.930;2023-03-14T03:27:38;10.37;;;5.93;;
10657;SDS011;5377;43.276;26.930;2023-03-14T03:30:06;9.07;;;5.73;;
10657;SDS011;5377;43.276;26.930;2023-03-14T03:32:33;12.83;;;6.13;;
10657;SDS011;5377;43.276;26.930;2023-03-14T03:35:01;10.73;;;6.67;;
10657;SDS011;5377;43.276;26.930;2023-03-14T03:37:29;13.43;;;7.10;;
10657;SDS011;5377;43.276;26.930;2023-03-14T03:39:58;11.57;;;7.53;;
10657;SDS011;5377;43.276;26.930;2023-03-14T03:42:25;15.07;;;6.77;;
10657;SDS011;5377;43.276;26.930;2023-03-14T03:44:52;9.27;;;6.07;;
10657;SDS011;5377;43.276;26.930;2023-03-14T03:47:19;8.73;;;6.03;;
10657;SDS011;5377;43.276;26.930;2023-03-14T03:49:46;11.93;;;6.07;;
10657;SDS011;5377;43.276;26.930;2023-03-14T03:52:13;9.10;;;7.10;;
10657;SDS011;5377;43.276;26.930;2023-03-14T03:54:39;12.67;;;7.33;;
10657;SDS011;5377;43.276;26.930;2023-03-14T03:57:07;14.80;;;7.67;;
10657;SDS011;5377;43.276;26.930;2023-03-14T03:59:34;15.97;;;7.73;;
10657;SDS011;5377;43.276;26.930;2023-03-14T04:02:03;17.67;;;9.70;;
10657;SDS011;5377;43.276;26.930;2023-03-14T04:04:30;15.47;;;7.97;;
10657;SDS011;5377;43.276;26.930;2023-03-14T04:06:57;21.90;;;12.37;;
10657;SDS011;5377;43.276;26.930;2023-03-14T04:09:24;38.00;;;21.53;;
10657;SDS011;5377;43.276;26.930;2023-03-14T04:11:50;26.93;;;15.27;;
10657;SDS011;5377;43.276;26.930;2023-03-14T04:14:19;24.17;;;13.60;;
10657;SDS011;5377;43.276;26.930;2023-03-14T04:16:45;25.23;;;13.13;;
10657;SDS011;5377;43.276;26.930;2023-03-14T04:19:12;20.27;;;10.70;;
10657;SDS011;5377;43.276;26.930;2023-03-14T04:21:39;23.00;;;11.13;;
10657;SDS011;5377;43.276;26.930;2023-03-14T04:24:09;29.83;;;16.67;;
10657;SDS011;5377;43.276;26.930;2023-03-14T04:26:36;30.67;;;16.37;;
10657;SDS011;5377;43.276;26.930;2023-03-14T04:29:03;25.27;;;15.27;;
10657;SDS011;5377;43.276;26.930;2023-03-14T04:31:31;17.97;;;12.27;;
10657;SDS011;5377;43.276;26.930;2023-03-14T04:33:58;19.53;;;11.47;;
10657;SDS011;5377;43.276;26.930;2023-03-14T04:36:25;25.27;;;11.90;;
10657;SDS011;5377;43.276;26.930;2023-03-14T04:38:51;16.33;;;10.90;;
10657;SDS011;5377;43.276;26.930;2023-03-14T04:41:18;26.97;;;14.43;;
10657;SDS011;5377;43.276;26.930;2023-03-14T04:43:45;21.00;;;13.07;;
10657;SDS011;5377;43.276;26.930;2023-03-14T04:46:12;29.30;;;16.20;;
10657;SDS011;5377;43.276;26.930;2023-03-14T04:48:40;27.30;;;16.80;;
10657;SDS011;5377;43.276;26.930;2023-03-14T04:51:07;30.23;;;17.40;;
10657;SDS011;5377;43.276;26.930;2023-03-14T04:53:33;24.93;;;15.37;;
10657;SDS011;5377;43.276;26.930;2023-03-14T04:56:02;22.23;;;13.87;;
10657;SDS011;5377;43.276;26.930;2023-03-14T04:58:29;21.17;;;13.83;;
10657;SDS011;5377;43.276;26.930;2023-03-14T05:00:55;20.07;;;14.77;;
10657;SDS011;5377;43.276;26.930;2023-03-14T05:03:28;24.93;;;13.67;;
10657;SDS011;5377;43.276;26.930;2023-03-14T05:05:57;18.27;;;11.30;;
10657;SDS011;5377;43.276;26.930;2023-03-14T05:08:24;18.87;;;11.13;;
10657;SDS011;5377;43.276;26.930;2023-03-14T05:10:53;21.83;;;12.93;;
10657;SDS011;5377;43.276;26.930;2023-03-14T05:13:21;21.60;;;11.93;;
10657;SDS011;5377;43.276;26.930;2023-03-14T05:15:48;17.07;;;12.90;;
10657;SDS011;5377;43.276;26.930;2023-03-14T05:18:16;16.57;;;11.30;;
10657;SDS011;5377;43.276;26.930;2023-03-14T05:20:43;22.97;;;12.57;;
10657;SDS011;5377;43.276;26.930;2023-03-14T05:23:11;20.77;;;11.80;;
10657;SDS011;5377;43.276;26.930;2023-03-14T05:25:38;19.83;;;9.93;;
10657;SDS011;5377;43.276;26.930;2023-03-14T05:28:04;32.80;;;23.00;;
10657;SDS011;5377;43.276;26.930;2023-03-14T05:30:31;33.63;;;19.17;;
10657;SDS011;5377;43.276;26.930;2023-03-14T05:32:58;20.30;;;14.30;;
10657;SDS011;5377;43.276;26.930;2023-03-14T05:35:25;15.60;;;8.80;;
10657;SDS011;5377;43.276;26.930;2023-03-14T05:37:52;17.17;;;9.00;;
10657;SDS011;5377;43.276;26.930;2023-03-14T05:40:20;16.60;;;7.33;;
10657;SDS011;5377;43.276;26.930;2023-03-14T05:42:47;22.03;;;9.07;;
10657;SDS011;5377;43.276;26.930;2023-03-14T05:45:13;11.13;;;8.20;;
10657;SDS011;5377;43.276;26.930;2023-03-14T05:47:40;13.57;;;8.83;;
10657;SDS011;5377;43.276;26.930;2023-03-14T05:50:07;11.33;;;7.13;;
10657;SDS011;5377;43.276;26.930;2023-03-14T05:52:35;10.10;;;6.57;;
10657;SDS011;5377;43.276;26.930;2023-03-14T05:55:02;12.37;;;6.33;;
10657;SDS011;5377;43.276;26.930;2023-03-14T05:57:31;9.23;;;6.50;;
10657;SDS011;5377;43.276;26.930;2023-03-14T05:59:58;14.90;;;6.47;;
10657;SDS011;5377;43.276;26.930;2023-03-14T06:02:24;5.13;;;3.67;;
10657;SDS011;5377;43.276;26.930;2023-03-14T06:04:51;12.10;;;3.10;;
10657;SDS011;5377;43.276;26.930;2023-03-14T06:07:18;6.60;;;3.03;;
10657;SDS011;5377;43.276;26.930;2023-03-14T06:09:45;9.70;;;3.60;;
10657;SDS011;5377;43.276;26.930;2023-03-14T06:12:12;9.67;;;2.97;;
10657;SDS011;5377;43.276;26.930;2023-03-14T06:14:40;4.43;;;2.73;;
10657;SDS011;5377;43.276;26.930;2023-03-14T06:17:06;6.67;;;2.40;;
10657;SDS011;5377;43.276;26.930;2023-03-14T06:19:33;5.03;;;2.47;;
10657;SDS011;5377;43.276;26.930;2023-03-14T06:22:00;6.23;;;2.13;;
10657;SDS011;5377;43.276;26.930;2023-03-14T06:24:27;3.20;;;2.43;;
10657;SDS011;5377;43.276;26.930;2023-03-14T06:26:53;3.83;;;2.50;;
10657;SDS011;5377;43.276;26.930;2023-03-14T06:29:20;7.27;;;3.10;;
10657;SDS011;5377;43.276;26.930;2023-03-14T06:31:48;6.67;;;3.03;;
10657;SDS011;5377;43.276;26.930;2023-03-14T06:34:15;5.10;;;2.93;;
10657;SDS011;5377;43.276;26.930;2023-03-14T06:36:42;5.73;;;3.63;;
10657;SDS011;5377;43.276;26.930;2023-03-14T06:39:08;8.70;;;4.33;;
10657;SDS011;5377;43.276;26.930;2023-03-14T06:41:35;6.23;;;3.80;;
10657;SDS011;5377;43.276;26.930;2023-03-14T06:44:02;5.37;;;3.40;;
10657;SDS011;5377;43.276;26.930;2023-03-14T06:46:29;6.03;;;4.50;;
10657;SDS011;5377;43.276;26.930;2023-03-14T06:48:57;3.60;;;3.17;;
10657;SDS011;5377;43.276;26.930;2023-03-14T06:51:24;8.47;;;4.23;;
10657;SDS011;5377;43.276;26.930;2023-03-14T06:53:51;5.60;;;2.20;;
10657;SDS011;5377;43.276;26.930;2023-03-14T06:56:17;3.47;;;3.00;;
10657;SDS011;5377;43.276;26.930;2023-03-14T06:58:44;2.90;;;2.20;;
10657;SDS011;5377;43.276;26.930;2023-03-14T07:01:15;6.33;;;2.67;;
10657;SDS011;5377;43.276;26.930;2023-03-14T07:03:46;4.03;;;2.63;;
10657;SDS011;5377;43.276;26.930;2023-03-14T07:06:14;6.93;;;2.47;;
10657;SDS011;5377;43.276;26.930;2023-03-14T07:08:41;10.47;;;3.17;;
10657;SDS011;5377;43.276;26.930;2023-03-14T07:11:08;2.90;;;2.43;;
10657;SDS011;5377;43.276;26.930;2023-03-14T07:13:36;9.53;;;2.60;;
10657;SDS011;5377;43.276;26.930;2023-03-14T07:16:03;4.00;;;2.50;;
10657;SDS011;5377;43.276;26.930;2023-03-14T07:18:30;1.77;;;1.40;;
10657;SDS011;5377;43.276;26.930;2023-03-14T07:20:57;8.77;;;2.00;;
10657;SDS011;5377;43.276;26.930;2023-03-14T07:23:25;2.33;;;1.40;;
10657;SDS011;5377;43.276;26.930;2023-03-14T07:25:52;4.30;;;1.63;;
10657;SDS011;5377;43.276;26.930;2023-03-14T07:28:18;3.57;;;1.60;;
10657;SDS011;5377;43.276;26.930;2023-03-14T07:30:46;1.80;;;1.13;;
10657;SDS011;5377;43.276;26.930;2023-03-14T07:33:12;3.77;;;1.77;;
10657;SDS011;5377;43.276;26.930;2023-03-14T07:35:39;1.80;;;1.50;;
10657;SDS011;5377;43.276;26.930;2023-03-14T07:38:06;0.93;;;0.87;;
10657;SDS011;5377;43.276;26.930;2023-03-14T07:40:34;4.53;;;1.50;;
10657;SDS011;5377;43.276;26.930;2023-03-14T07:43:01;3.07;;;0.90;;
10657;SDS011;5377;43.276;26.930;2023-03-14T07:45:28;2.50;;;1.37;;
10657;SDS011;5377;43.276;26.930;2023-03-14T07:47:54;2.45;;;1.00;;
10657;SDS011;5377;43.276;26.930;2023-03-14T07:50:22;3.83;;;0.93;;
10657;SDS011;5377;43.276;26.930;2023-03-14T07:52:49;0.82;;;0.63;;
10657;SDS011;5377;43.276;26.930;2023-03-14T07:55:16;2.20;;;0.93;;
10657;SDS011;5377;43.276;26.930;2023-03-14T07:57:44;2.13;;;0.60;;
10657;SDS011;5377;43.276;26.930;2023-03-14T08:00:11;2.00;;;0.60;;
10657;SDS011;5377;43.276;26.930;2023-03-14T08:02:39;2.45;;;0.50;;
10657;SDS011;5377;43.276;26.930;2023-03-14T08:05:06;0.80;;;0.35;;
10657;SDS011;5377;43.276;26.930;2023-03-14T08:07:33;0.65;;;0.57;;
10657;SDS011;5377;43.276;26.930;2023-03-14T08:10:00;4.50;;;1.20;;
10657;SDS011;5377;43.276;26.930;2023-03-14T08:12:27;1.27;;;0.60;;
10657;SDS011;5377;43.276;26.930;2023-03-14T08:14:55;4.63;;;0.47;;
10657;SDS011;5377;43.276;26.930;2023-03-14T08:17:22;1.48;;;0.50;;
10657;SDS011;5377;43.276;26.930;2023-03-14T08:19:48;0.73;;;0.45;;
10657;SDS011;5377;43.276;26.930;2023-03-14T08:22:15;2.70;;;0.30;;
10657;SDS011;5377;43.276;26.930;2023-03-14T08:24:42;2.28;;;0.40;;
10657;SDS011;5377;43.276;26.930;2023-03-14T08:27:09;1.58;;;0.30;;
10657;SDS011;5377;43.276;26.930;2023-03-14T08:29:35;0.75;;;0.30;;
10657;SDS011;5377;43.276;26.930;2023-03-14T08:32:04;0.60;;;0.40;;
10657;SDS011;5377;43.276;26.930;2023-03-14T08:34:32;0.20;;;0.20;;
10657;SDS011;5377;43.276;26.930;2023-03-14T08:36:59;0.38;;;0.30;;
10657;SDS011;5377;43.276;26.930;2023-03-14T08:39:25;1.90;;;0.50;;
10657;SDS011;5377;43.276;26.930;2023-03-14T08:41:52;4.10;;;0.40;;
10657;SDS011;5377;43.276;26.930;2023-03-14T08:44:19;0.20;;;0.20;;
10657;SDS011;5377;43.276;26.930;2023-03-14T08:46:46;3.92;;;0.60;;
10657;SDS011;5377;43.276;26.930;2023-03-14T08:49:14;0.80;;;0.30;;
10657;SDS011;5377;43.276;26.930;2023-03-14T08:51:41;1.42;;;0.40;;
10657;SDS011;5377;43.276;26.930;2023-03-14T08:54:09;1.20;;;0.20;;
10657;SDS011;5377;43.276;26.930;2023-03-14T08:56:37;0.30;;;0.30;;
10657;SDS011;5377;43.276;26.930;2023-03-14T08:59:03;2.20;;;0.43;;
10657;SDS011;5377;43.276;26.930;2023-03-14T09:01:31;1.02;;;0.28;;
10657;SDS011;5377;43.276;26.930;2023-03-14T09:03:57;0.30;;;0.20;;
10657;SDS011;5377;43.276;26.930;2023-03-14T09:06:26;0.95;;;0.30;;
10657;SDS011;5377;43.276;26.930;2023-03-14T09:08:52;0.60;;;0.32;;
10657;SDS011;5377;43.276;26.930;2023-03-14T09:11:19;0.20;;;0.20;;
10657;SDS011;5377;43.276;26.930;2023-03-14T09:13:46;0.30;;;0.30;;
10657;SDS011;5377;43.276;26.930;2023-03-14T09:16:13;0.20;;;0.20;;
10657;SDS011;5377;43.276;26.930;2023-03-14T09:18:40;0.20;;;0.20;;
10657;SDS011;5377;43.276;26.930;2023-03-14T09:21:07;1.75;;;0.50;;
10657;SDS011;5377;43.276;26.930;2023-03-14T09:23:36;0.82;;;0.30;;
10657;SDS011;5377;43.276;26.930;2023-03-14T09:26:02;2.60;;;0.32;;
10657;SDS011;5377;43.276;26.930;2023-03-14T09:28:29;0.95;;;0.20;;
10657;SDS011;5377;43.276;26.930;2023-03-14T09:30:56;1.65;;;0.30;;
10657;SDS011;5377;43.276;26.930;2023-03-14T09:33:23;1.23;;;0.40;;
10657;SDS011;5377;43.276;26.930;2023-03-14T09:35:50;1.52;;;0.52;;
10657;SDS011;5377;43.276;26.930;2023-03-14T09:38:16;1.60;;;0.30;;
10657;SDS011;5377;43.276;26.930;2023-03-14T09:40:47;0.43;;;0.32;;
10657;SDS011;5377;43.276;26.930;2023-03-14T09:43:14;0.85;;;0.20;;
10657;SDS011;5377;43.276;26.930;2023-03-14T09:45:42;2.15;;;0.60;;
10657;SDS011;5377;43.276;26.930;2023-03-14T09:48:12;2.00;;;0.40;;
10657;SDS011;5377;43.276;26.930;2023-03-14T09:50:43;0.65;;;0.30;;
10657;SDS011;5377;43.276;26.930;2023-03-14T09:53:12;0.80;;;0.38;;
10657;SDS011;5377;43.276;26.930;2023-03-14T09:55:42;0.47;;;0.38;;
10657;SDS011;5377;43.276;26.930;2023-03-14T09:58:13;0.70;;;0.25;;
10657;SDS011;5377;43.276;26.930;2023-03-14T10:00:42;2.33;;;0.38;;
10657;SDS011;5377;43.276;26.930;2023-03-14T10:03:19;1.83;;;0.30;;
10657;SDS011;5377;43.276;26.930;2023-03-14T10:05:49;1.58;;;0.43;;
10657;SDS011;5377;43.276;26.930;2023-03-14T10:08:15;0.50;;;0.30;;
10657;SDS011;5377;43.276;26.930;2023-03-14T10:10:42;1.65;;;0.25;;
10657;SDS011;5377;43.276;26.930;2023-03-14T10:13:13;1.73;;;0.20;;
10657;SDS011;5377;43.276;26.930;2023-03-14T10:15:46;0.20;;;0.20;;
10657;SDS011;5377;43.276;26.930;2023-03-14T10:18:14;0.10;;;0.10;;
10657;SDS011;5377;43.276;26.930;2023-03-14T10:20:41;0.57;;;0.25;;
10657;SDS011;5377;43.276;26.930;2023-03-14T10:23:18;1.42;;;0.28;;
10657;SDS011;5377;43.276;26.930;2023-03-14T10:25:58;0.80;;;0.30;;
10657;SDS011;5377;43.276;26.930;2023-03-14T10:28:30;0.50;;;0.40;;
10657;SDS011;5377;43.276;26.930;2023-03-14T10:30:58;1.80;;;0.22;;
10657;SDS011;5377;43.276;26.930;2023-03-14T10:33:27;0.30;;;0.30;;
10657;SDS011;5377;43.276;26.930;2023-03-14T10:35:55;0.95;;;0.30;;
10657;SDS011;5377;43.276;26.930;2023-03-14T10:38:23;0.22;;;0.20;;
10657;SDS011;5377;43.276;26.930;2023-03-14T10:40:52;1.35;;;0.30;;
10657;SDS011;5377;43.276;26.930;2023-03-14T10:43:22;1.27;;;0.30;;
10657;SDS011;5377;43.276;26.930;2023-03-14T10:45:54;0.93;;;0.40;;
10657;SDS011;5377;43.276;26.930;2023-03-14T10:48:24;2.90;;;0.40;;
10657;SDS011;5377;43.276;26.930;2023-03-14T10:50:57;0.77;;;0.25;;
10657;SDS011;5377;43.276;26.930;2023-03-14T10:53:32;0.35;;;0.30;;
10657;SDS011;5377;43.276;26.930;2023-03-14T10:56:04;0.80;;;0.30;;
10657;SDS011;5377;43.276;26.930;2023-03-14T10:58:32;0.77;;;0.40;;
10657;SDS011;5377;43.276;26.930;2023-03-14T11:01:08;0.32;;;0.20;;
10657;SDS011;5377;43.276;26.930;2023-03-14T11:03:47;0.52;;;0.30;;
10657;SDS011;5377;43.276;26.930;2023-03-14T11:06:20;0.30;;;0.30;;
10657;SDS011;5377;43.276;26.930;2023-03-14T11:08:53;1.10;;;0.17;;
10657;SDS011;5377;43.276;26.930;2023-03-14T11:11:30;0.65;;;0.30;;
10657;SDS011;5377;43.276;26.930;2023-03-14T11:14:00;0.70;;;0.30;;
10657;SDS011;5377;43.276;26.930;2023-03-14T11:16:40;0.70;;;0.40;;
10657;SDS011;5377;43.276;26.930;2023-03-14T11:19:20;1.10;;;0.30;;
10657;SDS011;5377;43.276;26.930;2023-03-14T11:22:12;0.60;;;0.30;;
10657;SDS011;5377;43.276;26.930;2023-03-14T11:24:49;0.68;;;0.22;;
10657;SDS011;5377;43.276;26.930;2023-03-14T11:27:30;0.30;;;0.30;;
10657;SDS011;5377;43.276;26.930;2023-03-14T11:30:12;1.90;;;1.27;;
10657;SDS011;5377;43.276;26.930;2023-03-14T11:32:45;0.50;;;0.50;;
10657;SDS011;5377;43.276;26.930;2023-03-14T11:35:17;2.00;;;0.45;;
10657;SDS011;5377;43.276;26.930;2023-03-14T11:37:51;4.72;;;0.40;;
10657;SDS011;5377;43.276;26.930;2023-03-14T11:40:21;3.67;;;0.40;;
10657;SDS011;5377;43.276;26.930;2023-03-14T11:42:58;1.63;;;0.45;;
10657;SDS011;5377;43.276;26.930;2023-03-14T11:45:33;1.70;;;0.40;;
10657;SDS011;5377;43.276;26.930;2023-03-14T11:48:15;1.95;;;0.40;;
10657;SDS011;5377;43.276;26.930;2023-03-14T11:50:48;5.13;;;1.35;;
10657;SDS011;5377;43.276;26.930;2023-03-14T11:53:19;1.85;;;1.25;;
10657;SDS011;5377;43.276;26.930;2023-03-14T11:55:51;0.63;;;0.50;;
10657;SDS011;5377;43.276;26.930;2023-03-14T11:58:19;0.30;;;0.30;;
10657;SDS011;5377;43.276;26.930;2023-03-14T12:00:50;2.13;;;0.85;;
10657;SDS011;5377;43.276;26.930;2023-03-14T12:03:23;2.20;;;0.55;;
10657;SDS011;5377;43.276;26.930;2023-03-14T12:06:01;2.97;;;0.80;;
10657;SDS011;5377;43.276;26.930;2023-03-14T12:08:36;2.53;;;1.15;;
10657;SDS011;5377;43.276;26.930;2023-03-14T12:11:09;1.00;;;0.80;;
10657;SDS011;5377;43.276;26.930;2023-03-14T12:13:39;0.40;;;0.30;;
10657;SDS011;5377;43.276;26.930;2023-03-14T12:16:18;1.45;;;0.45;;
10657;SDS011;5377;43.276;26.930;2023-03-14T12:18:53;2.05;;;0.60;;
10657;SDS011;5377;43.276;26.930;2023-03-14T12:21:20;1.88;;;0.30;;
10657;SDS011;5377;43.276;26.930;2023-03-14T12:24:14;0.93;;;0.40;;
10657;SDS011;5377;43.276;26.930;2023-03-14T12:26:46;0.73;;;0.40;;
10657;SDS011;5377;43.276;26.930;2023-03-14T12:29:16;1.33;;;0.40;;
10657;SDS011;5377;43.276;26.930;2023-03-14T12:31:43;0.32;;;0.17;;
10657;SDS011;5377;43.276;26.930;2023-03-14T12:34:32;1.52;;;0.73;;
10657;SDS011;5377;43.276;26.930;2023-03-14T12:37:01;1.13;;;0.20;;
10657;SDS011;5377;43.276;26.930;2023-03-14T12:39:40;0.65;;;0.32;;
10657;SDS011;5377;43.276;26.930;2023-03-14T12:42:14;0.70;;;0.35;;
10657;SDS011;5377;43.276;26.930;2023-03-14T12:44:48;2.72;;;0.22;;
10657;SDS011;5377;43.276;26.930;2023-03-14T12:50:27;0.40;;;0.30;;
10657;SDS011;5377;43.276;26.930;2023-03-14T12:53:03;0.15;;;0.10;;
10657;SDS011;5377;43.276;26.930;2023-03-14T12:55:45;7.38;;;2.53;;
10657;SDS011;5377;43.276;26.930;2023-03-14T12:58:16;2.72;;;0.70;;
10657;SDS011;5377;43.276;26.930;2023-03-14T13:00:51;1.55;;;0.45;;
10657;SDS011;5377;43.276;26.930;2023-03-14T13:03:22;2.97;;;0.77;;
10657;SDS011;5377;43.276;26.930;2023-03-14T13:05:55;1.02;;;0.20;;
10657;SDS011;5377;43.276;26.930;2023-03-14T13:08:33;0.40;;;0.40;;
10657;SDS011;5377;43.276;26.930;2023-03-14T13:11:05;0.60;;;0.30;;
10657;SDS011;5377;43.276;26.930;2023-03-14T13:13:35;2.17;;;0.40;;
10657;SDS011;5377;43.276;26.930;2023-03-14T13:16:09;2.40;;;0.30;;
10657;SDS011;5377;43.276;26.930;2023-03-14T13:18:40;0.50;;;0.20;;
10657;SDS011;5377;43.276;26.930;2023-03-14T13:21:11;2.22;;;0.30;;
10657;SDS011;5377;43.276;26.930;2023-03-14T13:23:42;0.22;;;0.20;;
10657;SDS011;5377;43.276;26.930;2023-03-14T13:26:20;2.92;;;0.38;;
10657;SDS011;5377;43.276;26.930;2023-03-14T13:28:49;0.40;;;0.40;;
10657;SDS011;5377;43.276;26.930;2023-03-14T13:31:19;11.90;;;1.17;;
10657;SDS011;5377;43.276;26.930;2023-03-14T13:33:56;0.20;;;0.20;;
10657;SDS011;5377;43.276;26.930;2023-03-14T13:36:25;30.40;;;3.15;;
10657;SDS011;5377;43.276;26.930;2023-03-14T13:38:55;3.80;;;0.63;;
10657;SDS011;5377;43.276;26.930;2023-03-14T13:41:22;4.35;;;0.60;;
10657;SDS011;5377;43.276;26.930;2023-03-14T13:43:50;2.50;;;0.25;;
10657;SDS011;5377;43.276;26.930;2023-03-14T13:46:17;0.40;;;0.20;;
10657;SDS011;5377;43.276;26.930;2023-03-14T13:48:48;2.45;;;0.50;;
10657;SDS011;5377;43.276;26.930;2023-03-14T13:51:17;0.63;;;0.63;;
10657;SDS011;5377;43.276;26.930;2023-03-14T13:53:47;0.77;;;0.77;;
10657;SDS011;5377;43.276;26.930;2023-03-14T13:56:16;2.35;;;0.90;;
10657;SDS011;5377;43.276;26.930;2023-03-14T13:58:43;1.02;;;0.30;;
10657;SDS011;5377;43.276;26.930;2023-03-14T14:01:12;0.57;;;0.38;;
10657;SDS011;5377;43.276;26.930;2023-03-14T14:03:42;0.85;;;0.20;;
10657;SDS011;5377;43.276;26.930;2023-03-14T14:06:16;3.05;;;0.43;;
10657;SDS011;5377;43.276;26.930;2023-03-14T14:08:50;0.68;;;0.32;;
10657;SDS011;5377;43.276;26.930;2023-03-14T14:11:20;5.28;;;0.30;;
10657;SDS011;5377;43.276;26.930;2023-03-14T14:13:57;5.75;;;1.33;;
10657;SDS011;5377;43.276;26.930;2023-03-14T14:16:25;3.03;;;0.40;;
10657;SDS011;5377;43.276;26.930;2023-03-14T14:18:55;0.30;;;0.30;;
10657;SDS011;5377;43.276;26.930;2023-03-14T14:21:25;1.50;;;1.20;;
10657;SDS011;5377;43.276;26.930;2023-03-14T14:23:53;2.65;;;0.52;;
10657;SDS011;5377;43.276;26.930;2023-03-14T14:26:20;0.20;;;0.20;;
10657;SDS011;5377;43.276;26.930;2023-03-14T14:28:47;0.43;;;0.40;;
10657;SDS011;5377;43.276;26.930;2023-03-14T14:31:25;3.00;;;0.73;;
10657;SDS011;5377;43.276;26.930;2023-03-14T14:33:55;1.48;;;0.50;;
10657;SDS011;5377;43.276;26.930;2023-03-14T14:36:24;0.68;;;0.60;;
10657;SDS011;5377;43.276;26.930;2023-03-14T14:38:58;1.00;;;0.50;;
10657;SDS011;5377;43.276;26.930;2023-03-14T14:41:27;1.08;;;0.22;;
10657;SDS011;5377;43.276;26.930;2023-03-14T14:43:55;0.38;;;0.28;;
10657;SDS011;5377;43.276;26.930;2023-03-14T14:46:23;1.58;;;0.60;;
10657;SDS011;5377;43.276;26.930;2023-03-14T14:48:55;1.38;;;0.40;;
10657;SDS011;5377;43.276;26.930;2023-03-14T14:51:24;0.30;;;0.30;;
10657;SDS011;5377;43.276;26.930;2023-03-14T14:54:11;1.55;;;0.45;;
10657;SDS011;5377;43.276;26.930;2023-03-14T14:56:39;0.40;;;0.35;;
10657;SDS011;5377;43.276;26.930;2023-03-14T14:59:17;2.92;;;0.40;;